Time;durP1;ratioP1;P1;durP2;ratioP2;P2;SDS_P1;SDS_P2;PMS_P1;PMS_P2;Temp;Humidity;BMP_temperature;BMP_pressure;BME280_temperature;BME280_humidity;BME280_pressure;Samples;Min_cycle;Max_cycle;Signal;HPM_P1;HPM_P2
2021/12/15 00:01:22;;;;;;;17.30;9.77;;;;;;;;;;5058370;28;20189;-79
2021/12/15 00:03:48;;;;;;;15.57;9.23;;;;;;;;;;5058412;28;20209;-79
2021/12/15 00:06:18;;;;;;;16.33;9.53;;;;;;;;;;5041872;28;20557;-79
2021/12/15 00:08:45;;;;;;;14.83;9.37;;;;;;;;;;5058298;28;20199;-79
2021/12/15 00:11:12;;;;;;;16.00;10.17;;;;;;;;;;5058086;28;20547;-79
2021/12/15 00:13:39;;;;;;;16.87;9.73;;;;;;;;;;5042215;28;20205;-79
2021/12/15 00:16:06;;;;;;;15.77;9.63;;;;;;;;;;5058615;28;20170;-79
2021/12/15 00:18:32;;;;;;;17.87;9.87;;;;;;;;;;5042149;28;20197;-79
2021/12/15 00:20:58;;;;;;;15.37;9.40;;;;;;;;;;5058438;28;20172;-79
2021/12/15 00:23:24;;;;;;;14.03;9.20;;;;;;;;;;5041669;28;20593;-79
2021/12/15 00:25:50;;;;;;;16.60;9.80;;;;;;;;;;5041936;28;20389;-79
2021/12/15 00:28:17;;;;;;;17.27;10.53;;;;;;;;;;5042002;28;20286;-79
2021/12/15 00:30:43;;;;;;;16.60;10.03;;;;;;;;;;5041726;28;20174;-79
2021/12/15 00:33:09;;;;;;;19.50;10.60;;;;;;;;;;5058561;28;20178;-79
2021/12/15 00:35:36;;;;;;;16.47;10.10;;;;;;;;;;5041431;28;20205;-79
2021/12/15 00:38:04;;;;;;;16.90;10.10;;;;;;;;;;5057809;28;20247;-79
2021/12/15 00:40:30;;;;;;;18.00;10.53;;;;;;;;;;5041593;28;20213;-79
2021/12/15 00:42:58;;;;;;;17.07;10.30;;;;;;;;;;5057836;28;20277;-79
2021/12/15 00:45:24;;;;;;;17.50;9.90;;;;;;;;;;5041682;28;20658;-79
2021/12/15 00:47:50;;;;;;;16.97;10.57;;;;;;;;;;5058360;28;20265;-79
2021/12/15 00:50:17;;;;;;;16.67;9.93;;;;;;;;;;5040761;28;20226;-79
2021/12/15 00:52:44;;;;;;;15.47;9.70;;;;;;;;;;5057208;28;20185;-79
2021/12/15 00:55:11;;;;;;;18.23;10.50;;;;;;;;;;5040915;28;20188;-79
2021/12/15 00:57:37;;;;;;;18.23;10.60;;;;;;;;;;5040797;28;20671;-79
2021/12/15 01:00:08;;;;;;;17.37;10.07;;;;;;;;;;5040830;28;20190;-79
2021/12/15 01:02:34;;;;;;;20.00;10.27;;;;;;;;;;5056997;28;20296;-79
2021/12/15 01:05:00;;;;;;;17.33;9.93;;;;;;;;;;5056909;28;20185;-79
2021/12/15 01:07:27;;;;;;;18.33;10.53;;;;;;;;;;5040629;28;20177;-79
2021/12/15 01:09:56;;;;;;;18.97;11.23;;;;;;;;;;5057412;28;20182;-79
2021/12/15 01:20:38;;;;;;;18.90;10.57;;;;;;;;;;5074706;28;20268;-79
2021/12/15 01:23:07;;;;;;;15.97;9.57;;;;;;;;;;5040105;28;20216;-79
2021/12/15 01:26:03;;;;;;;17.27;9.83;;;;;;;;;;5040593;28;20182;-79
2021/12/15 01:28:30;;;;;;;17.70;10.67;;;;;;;;;;5039525;28;20204;-79
2021/12/15 01:30:56;;;;;;;16.77;10.17;;;;;;;;;;5040263;28;20231;-79
2021/12/15 01:33:23;;;;;;;16.17;10.07;;;;;;;;;;5056651;28;20177;-79
2021/12/15 01:35:50;;;;;;;18.90;10.23;;;;;;;;;;5039772;28;20268;-79
2021/12/15 01:38:17;;;;;;;19.83;11.20;;;;;;;;;;5056314;28;20232;-79
2021/12/15 01:40:44;;;;;;;19.37;10.70;;;;;;;;;;5039504;28;20249;-79
2021/12/15 01:43:23;;;;;;;18.50;10.43;;;;;;;;;;5056364;28;20566;-79
2021/12/15 01:48:39;;;;;;;18.10;10.67;;;;;;;;;;5074136;28;20241;-79
2021/12/15 01:51:06;;;;;;;18.17;10.73;;;;;;;;;;5056060;28;20542;-79
2021/12/15 01:53:33;;;;;;;17.33;10.27;;;;;;;;;;5039802;28;20184;-79
2021/12/15 01:55:59;;;;;;;18.47;11.10;;;;;;;;;;5056128;28;20184;-79
2021/12/15 01:58:25;;;;;;;19.73;11.07;;;;;;;;;;5055895;28;20257;-79
2021/12/15 02:00:53;;;;;;;17.93;10.03;;;;;;;;;;5039307;28;20238;-79
2021/12/15 02:03:19;;;;;;;18.23;10.70;;;;;;;;;;5039185;28;20198;-79
2021/12/15 02:05:45;;;;;;;19.57;10.70;;;;;;;;;;5055074;28;20175;-79
2021/12/15 02:08:13;;;;;;;18.27;11.17;;;;;;;;;;5055852;28;20197;-79
2021/12/15 02:10:40;;;;;;;17.07;10.50;;;;;;;;;;5039486;28;20182;-79
2021/12/15 02:13:07;;;;;;;19.17;10.30;;;;;;;;;;5039415;28;20186;-79
2021/12/15 02:15:35;;;;;;;20.37;10.83;;;;;;;;;;5055753;28;20179;-79
2021/12/15 02:18:03;;;;;;;17.87;10.90;;;;;;;;;;5039387;28;20264;-79
2021/12/15 02:20:29;;;;;;;19.40;11.00;;;;;;;;;;5055382;28;20253;-79
2021/12/15 02:22:55;;;;;;;21.23;10.80;;;;;;;;;;5055762;28;20701;-79
2021/12/15 02:25:21;;;;;;;18.60;10.50;;;;;;;;;;5039493;28;20271;-79
2021/12/15 02:27:47;;;;;;;20.20;11.00;;;;;;;;;;5038863;28;20219;-79
2021/12/15 02:30:22;;;;;;;17.77;10.43;;;;;;;;;;5039007;28;20298;-79
2021/12/15 02:33:03;;;;;;;17.63;10.27;;;;;;;;;;5055747;28;20187;-79
2021/12/15 02:38:15;;;;;;;18.10;10.23;;;;;;;;;;5073359;28;20263;-79
2021/12/15 02:40:41;;;;;;;18.03;10.37;;;;;;;;;;5055072;28;20208;-79
2021/12/15 02:43:07;;;;;;;18.87;10.27;;;;;;;;;;5038959;28;20223;-79
2021/12/15 02:45:33;;;;;;;16.63;9.43;;;;;;;;;;5055399;28;20174;-79
2021/12/15 02:47:59;;;;;;;17.07;9.23;;;;;;;;;;5038662;28;20209;-79
2021/12/15 02:50:28;;;;;;;19.23;11.17;;;;;;;;;;5055440;28;20244;-79
2021/12/15 02:52:55;;;;;;;16.80;10.20;;;;;;;;;;5038878;28;20341;-79
2021/12/15 02:55:21;;;;;;;16.30;9.93;;;;;;;;;;5054934;28;20177;-79
2021/12/15 02:57:48;;;;;;;19.27;10.47;;;;;;;;;;5055396;28;20197;-79
2021/12/15 03:00:17;;;;;;;20.10;10.67;;;;;;;;;;5038906;28;20239;-79
2021/12/15 03:03:20;;;;;;;18.70;9.73;;;;;;;;;;5038644;28;20579;-79
2021/12/15 03:05:52;;;;;;;18.23;9.73;;;;;;;;;;5059661;28;20546;-79
2021/12/15 03:08:28;;;;;;;16.83;9.63;;;;;;;;;;5055068;28;20280;-79
2021/12/15 03:16:25;;;;;;;15.83;9.03;;;;;;;;;;5074574;28;20209;-79
2021/12/15 03:18:51;;;;;;;18.07;9.53;;;;;;;;;;5059442;28;20197;-79
2021/12/15 03:21:21;;;;;;;15.90;9.30;;;;;;;;;;5058752;28;20659;-79
2021/12/15 03:23:54;;;;;;;17.47;9.37;;;;;;;;;;5043066;28;20187;-79
2021/12/15 03:26:24;;;;;;;14.77;8.87;;;;;;;;;;5059069;28;20215;-79
2021/12/15 03:34:40;;;;;;;14.47;9.00;;;;;;;;;;5077105;28;20232;-79
2021/12/15 03:37:26;;;;;;;16.47;9.13;;;;;;;;;;5044585;28;20177;-79
2021/12/15 03:39:55;;;;;;;16.87;9.37;;;;;;;;;;5059237;28;20182;-79
2021/12/15 03:42:25;;;;;;;14.43;8.67;;;;;;;;;;5058692;28;20213;-79
2021/12/15 03:44:52;;;;;;;15.53;9.10;;;;;;;;;;5058892;28;20273;-79
2021/12/15 03:47:24;;;;;;;17.77;9.17;;;;;;;;;;5041801;28;20174;-79
2021/12/15 03:49:51;;;;;;;15.23;8.93;;;;;;;;;;5058775;28;20175;-79
2021/12/15 03:52:17;;;;;;;19.00;9.27;;;;;;;;;;5042172;28;20251;-79
2021/12/15 03:54:43;;;;;;;15.33;9.57;;;;;;;;;;5058268;28;20184;-79
2021/12/15 03:57:09;;;;;;;15.13;9.07;;;;;;;;;;5041864;28;20187;-79
2021/12/15 03:59:40;;;;;;;13.57;8.67;;;;;;;;;;5041796;28;20342;-79
2021/12/15 04:02:07;;;;;;;14.47;8.43;;;;;;;;;;5042174;28;20675;-79
2021/12/15 04:04:33;;;;;;;14.93;9.20;;;;;;;;;;5041915;28;20522;-79
2021/12/15 04:06:59;;;;;;;14.63;9.00;;;;;;;;;;5041695;28;20186;-79
2021/12/15 04:09:25;;;;;;;15.57;8.43;;;;;;;;;;5041550;28;20195;-79
2021/12/15 04:11:54;;;;;;;13.67;8.53;;;;;;;;;;5041521;28;20213;-79
2021/12/15 04:14:28;;;;;;;14.53;8.40;;;;;;;;;;5058239;28;20186;-79
2021/12/15 04:17:17;;;;;;;14.37;8.43;;;;;;;;;;5058433;28;20191;-79
2021/12/15 04:19:43;;;;;;;15.00;7.83;;;;;;;;;;5058172;28;20637;-79
2021/12/15 04:22:09;;;;;;;14.57;8.00;;;;;;;;;;5041445;28;20308;-79
2021/12/15 04:24:35;;;;;;;14.13;8.53;;;;;;;;;;5057852;28;20174;-79
2021/12/15 04:27:01;;;;;;;13.57;8.10;;;;;;;;;;5041292;28;20181;-79
2021/12/15 04:29:29;;;;;;;12.97;7.53;;;;;;;;;;5056928;28;20658;-79
2021/12/15 04:31:55;;;;;;;13.63;8.63;;;;;;;;;;5057575;28;20181;-79
2021/12/15 04:34:21;;;;;;;12.27;7.63;;;;;;;;;;5057699;28;20189;-79
2021/12/15 04:36:48;;;;;;;10.60;7.27;;;;;;;;;;5041200;28;20603;-79
2021/12/15 04:39:17;;;;;;;12.87;7.50;;;;;;;;;;5040990;28;20673;-79
2021/12/15 04:41:47;;;;;;;13.00;7.47;;;;;;;;;;5057034;28;20202;-79
2021/12/15 04:44:15;;;;;;;13.63;8.20;;;;;;;;;;5057515;28;20186;-79
2021/12/15 04:46:46;;;;;;;13.50;7.83;;;;;;;;;;5057722;28;20179;-79
2021/12/15 04:49:13;;;;;;;14.00;8.40;;;;;;;;;;5057269;28;20307;-79
2021/12/15 04:51:39;;;;;;;15.87;8.97;;;;;;;;;;5040879;28;20184;-79
2021/12/15 04:54:06;;;;;;;14.80;8.80;;;;;;;;;;5040643;28;20198;-79
2021/12/15 04:56:32;;;;;;;15.30;9.20;;;;;;;;;;5057425;28;20178;-79
2021/12/15 04:58:58;;;;;;;15.27;9.70;;;;;;;;;;5057266;28;20205;-79
2021/12/15 05:01:25;;;;;;;15.10;9.10;;;;;;;;;;5040526;28;20173;-79
2021/12/15 05:03:51;;;;;;;15.27;9.47;;;;;;;;;;5040779;28;20210;-79
2021/12/15 05:06:17;;;;;;;14.37;9.57;;;;;;;;;;5057020;28;20173;-79
2021/12/15 05:08:43;;;;;;;16.93;9.83;;;;;;;;;;5057051;28;20682;-79
2021/12/15 05:11:10;;;;;;;16.90;10.10;;;;;;;;;;5040481;28;20454;-79
2021/12/15 05:13:36;;;;;;;18.63;10.97;;;;;;;;;;5057412;28;20264;-79
2021/12/15 05:16:03;;;;;;;18.07;10.97;;;;;;;;;;5056922;28;20664;-79
2021/12/15 05:18:29;;;;;;;17.87;10.87;;;;;;;;;;5056772;28;20194;-79
2021/12/15 05:20:57;;;;;;;17.70;10.07;;;;;;;;;;5040478;28;20296;-79
2021/12/15 05:23:28;;;;;;;18.70;10.80;;;;;;;;;;5040285;28;20210;-79
2021/12/15 05:25:54;;;;;;;21.07;11.40;;;;;;;;;;5041099;28;20651;-79
2021/12/15 05:28:20;;;;;;;18.40;11.03;;;;;;;;;;5040147;28;20292;-79
2021/12/15 05:30:47;;;;;;;18.93;11.03;;;;;;;;;;5056306;28;20655;-79
2021/12/15 05:33:13;;;;;;;19.03;10.73;;;;;;;;;;5056532;28;20177;-79
2021/12/15 05:35:39;;;;;;;18.03;10.90;;;;;;;;;;5056342;28;20189;-79
2021/12/15 05:38:06;;;;;;;18.43;11.33;;;;;;;;;;5056574;28;20205;-79
2021/12/15 05:40:32;;;;;;;20.33;11.47;;;;;;;;;;5039081;28;20217;-79
2021/12/15 05:42:59;;;;;;;18.67;11.50;;;;;;;;;;5056386;28;20206;-79
2021/12/15 05:45:26;;;;;;;21.20;12.30;;;;;;;;;;5056306;28;20176;-79
2021/12/15 05:47:53;;;;;;;19.63;10.70;;;;;;;;;;5056070;28;20651;-79
2021/12/15 05:50:19;;;;;;;19.23;11.53;;;;;;;;;;5056011;28;20220;-79
2021/12/15 05:52:45;;;;;;;19.93;11.67;;;;;;;;;;5056438;28;20206;-79
2021/12/15 05:55:12;;;;;;;19.30;11.40;;;;;;;;;;5056228;28;20189;-79
2021/12/15 05:57:38;;;;;;;20.43;11.53;;;;;;;;;;5039828;28;20292;-79
2021/12/15 06:00:08;;;;;;;19.30;11.27;;;;;;;;;;5039735;28;20175;-79
2021/12/15 06:02:34;;;;;;;19.33;11.27;;;;;;;;;;5055687;28;20205;-79
2021/12/15 06:05:00;;;;;;;18.57;10.90;;;;;;;;;;5039291;28;20231;-79
2021/12/15 06:07:26;;;;;;;18.77;11.73;;;;;;;;;;5039477;28;20282;-79
2021/12/15 06:09:52;;;;;;;20.17;11.30;;;;;;;;;;5038710;28;20187;-79
2021/12/15 06:12:18;;;;;;;19.10;11.17;;;;;;;;;;5038172;28;20178;-77
2021/12/15 06:14:44;;;;;;;18.07;11.20;;;;;;;;;;5054883;28;20179;-77
2021/12/15 06:17:12;;;;;;;17.97;11.10;;;;;;;;;;5054897;28;20189;-77
2021/12/15 06:19:38;;;;;;;18.50;11.00;;;;;;;;;;5054513;28;20203;-77
2021/12/15 06:22:05;;;;;;;18.13;11.00;;;;;;;;;;5054664;28;20213;-78
2021/12/15 06:24:31;;;;;;;17.40;10.63;;;;;;;;;;5054626;28;20173;-78
2021/12/15 06:27:03;;;;;;;18.17;11.17;;;;;;;;;;5054696;28;20217;-78
2021/12/15 06:29:29;;;;;;;18.03;10.47;;;;;;;;;;5054567;28;20676;-78
2021/12/15 06:31:55;;;;;;;19.23;10.87;;;;;;;;;;5037896;28;20184;-78
2021/12/15 06:34:22;;;;;;;20.30;11.53;;;;;;;;;;5037966;28;20292;-78
2021/12/15 06:36:48;;;;;;;19.20;10.77;;;;;;;;;;5037841;28;20182;-78
2021/12/15 06:39:14;;;;;;;19.27;10.00;;;;;;;;;;5054274;28;20198;-78
2021/12/15 06:41:40;;;;;;;18.37;10.43;;;;;;;;;;5037849;28;20231;-80
2021/12/15 06:44:06;;;;;;;18.23;10.87;;;;;;;;;;5038126;28;20243;-79
2021/12/15 06:58:10;;;;;;;18.70;10.63;;;;;;;;;;5058502;28;20206;-79
2021/12/15 07:00:17;;;;;;;17.63;9.97;;;;;;;;;;5073495;28;20188;-79
2021/12/15 07:02:43;;;;;;;18.40;10.17;;;;;;;;;;5054882;28;20226;-79
2021/12/15 07:05:11;;;;;;;16.33;9.83;;;;;;;;;;5038898;28;20181;-78
2021/12/15 07:07:38;;;;;;;17.07;10.07;;;;;;;;;;5054917;28;20192;-78
2021/12/15 07:10:05;;;;;;;19.87;11.37;;;;;;;;;;5054812;28;20182;-78
2021/12/15 07:12:31;;;;;;;18.60;10.73;;;;;;;;;;5038217;28;20183;-77
2021/12/15 07:14:57;;;;;;;18.57;10.73;;;;;;;;;;5072600;28;20586;-78
2021/12/15 07:17:25;;;;;;;19.73;11.07;;;;;;;;;;5037823;28;20232;-77
2021/12/15 07:20:40;;;;;;;20.00;11.53;;;;;;;;;;5037795;28;20268;-77
2021/12/15 07:22:44;;;;;;;20.03;11.33;;;;;;;;;;5050225;28;20591;-77
2021/12/15 07:25:14;;;;;;;23.23;11.93;;;;;;;;;;5039354;28;20181;-78
2021/12/15 07:27:40;;;;;;;21.30;11.97;;;;;;;;;;5055280;28;20568;-78
2021/12/15 07:30:07;;;;;;;22.63;11.63;;;;;;;;;;5038427;28;20647;-81
2021/12/15 07:32:33;;;;;;;22.03;11.93;;;;;;;;;;5037166;28;20215;-85
2021/12/15 07:34:59;;;;;;;23.60;12.67;;;;;;;;;;5054284;28;20173;-81
2021/12/15 07:37:25;;;;;;;18.87;11.37;;;;;;;;;;5037641;28;20525;-81
2021/12/15 07:39:57;;;;;;;19.37;10.17;;;;;;;;;;5054066;28;20182;-81
2021/12/15 07:42:33;;;;;;;20.00;11.30;;;;;;;;;;5053769;28;20331;-80
2021/12/15 07:44:59;;;;;;;18.87;11.00;;;;;;;;;;5054409;28;20201;-80
2021/12/15 07:47:25;;;;;;;22.33;10.50;;;;;;;;;;5054308;28;20174;-80
2021/12/15 07:49:51;;;;;;;21.03;12.17;;;;;;;;;;5054545;28;20174;-80
2021/12/15 07:52:17;;;;;;;22.30;12.03;;;;;;;;;;5054087;28;20179;-80
2021/12/15 07:54:43;;;;;;;22.17;12.57;;;;;;;;;;5037743;28;20185;-80
2021/12/15 07:57:11;;;;;;;24.03;11.70;;;;;;;;;;5054345;28;20547;-80
2021/12/15 07:59:37;;;;;;;23.67;11.27;;;;;;;;;;5038036;28;20259;-80
2021/12/15 08:02:04;;;;;;;22.47;12.57;;;;;;;;;;5054466;28;20193;-80
2021/12/15 08:04:30;;;;;;;23.10;11.87;;;;;;;;;;5057414;28;20169;-80
2021/12/15 08:06:56;;;;;;;20.63;11.67;;;;;;;;;;5041818;28;20189;-81
2021/12/15 08:09:22;;;;;;;21.40;11.77;;;;;;;;;;5058030;28;20680;-81
2021/12/15 08:11:49;;;;;;;20.10;11.90;;;;;;;;;;5041327;28;20597;-80
2021/12/15 08:14:15;;;;;;;20.03;11.13;;;;;;;;;;5041590;28;20543;-78
2021/12/15 08:16:41;;;;;;;19.40;10.80;;;;;;;;;;5041735;28;20676;-78
2021/12/15 08:19:08;;;;;;;20.40;10.80;;;;;;;;;;5058027;28;20200;-78
2021/12/15 08:21:34;;;;;;;20.50;10.93;;;;;;;;;;5058361;28;20179;-79
2021/12/15 08:24:00;;;;;;;16.70;10.33;;;;;;;;;;5042022;28;20179;-79
2021/12/15 08:26:27;;;;;;;17.33;9.73;;;;;;;;;;5058777;28;20173;-79
2021/12/15 08:28:53;;;;;;;16.17;9.60;;;;;;;;;;5042002;28;20201;-78
2021/12/15 08:31:19;;;;;;;17.33;9.90;;;;;;;;;;5058153;28;20174;-79
2021/12/15 08:33:45;;;;;;;16.33;9.10;;;;;;;;;;5042010;28;20208;-78
2021/12/15 08:36:13;;;;;;;17.60;9.50;;;;;;;;;;5058455;28;20181;-79
2021/12/15 08:38:41;;;;;;;19.97;11.00;;;;;;;;;;5058334;28;20207;-78
2021/12/15 08:41:11;;;;;;;16.90;10.43;;;;;;;;;;5057899;28;20216;-78
2021/12/15 08:43:38;;;;;;;16.87;10.27;;;;;;;;;;5041360;28;20213;-78
2021/12/15 08:46:06;;;;;;;15.23;9.37;;;;;;;;;;5058171;28;20174;-78
2021/12/15 08:48:34;;;;;;;19.03;9.53;;;;;;;;;;5058126;28;20205;-79
2021/12/15 08:51:00;;;;;;;18.47;10.70;;;;;;;;;;5041382;28;20177;-78
2021/12/15 08:53:27;;;;;;;20.50;11.20;;;;;;;;;;5057595;28;20532;-78
2021/12/15 08:55:53;;;;;;;21.30;10.87;;;;;;;;;;5057980;28;20184;-78
2021/12/15 08:58:20;;;;;;;19.77;11.00;;;;;;;;;;5058182;28;20204;-78
2021/12/15 09:00:47;;;;;;;21.43;12.30;;;;;;;;;;5040805;28;20189;-78
2021/12/15 09:03:14;;;;;;;23.23;11.53;;;;;;;;;;5057733;28;20204;-79
2021/12/15 09:05:41;;;;;;;21.30;11.57;;;;;;;;;;5057608;28;20178;-79
2021/12/15 09:08:08;;;;;;;21.13;11.47;;;;;;;;;;5040618;28;20205;-79
2021/12/15 09:10:35;;;;;;;28.17;12.90;;;;;;;;;;5041203;28;20238;-79
2021/12/15 09:13:01;;;;;;;21.97;11.27;;;;;;;;;;5057532;28;20175;-79
2021/12/15 09:15:28;;;;;;;23.97;12.40;;;;;;;;;;5057593;28;20180;-79
2021/12/15 09:17:54;;;;;;;21.87;11.73;;;;;;;;;;5057574;28;20612;-79
2021/12/15 09:20:22;;;;;;;24.37;12.70;;;;;;;;;;5058013;28;20281;-79
2021/12/15 09:22:48;;;;;;;22.70;12.27;;;;;;;;;;5041721;28;20209;-79
2021/12/15 09:25:15;;;;;;;21.97;11.70;;;;;;;;;;5041742;28;20182;-79
2021/12/15 09:27:42;;;;;;;18.10;10.03;;;;;;;;;;5061215;28;20199;-79
2021/12/15 09:30:09;;;;;;;16.83;9.97;;;;;;;;;;5075111;28;20671;-79
2021/12/15 09:32:35;;;;;;;19.17;10.43;;;;;;;;;;5040456;28;20555;-79
2021/12/15 09:35:01;;;;;;;18.47;10.20;;;;;;;;;;5056921;28;20224;-79
2021/12/15 09:37:28;;;;;;;16.30;9.37;;;;;;;;;;5056849;28;20184;-79
2021/12/15 09:39:55;;;;;;;15.23;9.27;;;;;;;;;;5056883;28;20708;-79
2021/12/15 09:42:26;;;;;;;18.10;9.90;;;;;;;;;;5056258;28;20257;-79
2021/12/15 09:44:58;;;;;;;16.37;8.73;;;;;;;;;;5074675;28;20173;-78
2021/12/15 09:48:01;;;;;;;16.10;9.23;;;;;;;;;;5040773;28;20185;-78
2021/12/15 10:06:50;;;;;;;14.10;9.03;;;;;;;;;;5072930;28;20174;-77
2021/12/15 10:17:44;;;;;;;16.20;9.40;;;;;;;;;;5040438;28;20184;-78
2021/12/15 10:20:15;;;;;;;16.50;8.50;;;;;;;;;;5056324;28;20168;-78
2021/12/15 10:22:47;;;;;;;15.43;9.10;;;;;;;;;;5073522;28;20358;-78
2021/12/15 10:25:19;;;;;;;16.17;9.67;;;;;;;;;;5039543;28;20194;-78
2021/12/15 10:27:50;;;;;;;16.80;9.87;;;;;;;;;;5054769;28;20195;-77
2021/12/15 10:30:19;;;;;;;16.70;8.83;;;;;;;;;;5038542;28;20184;-78
2021/12/15 10:32:46;;;;;;;16.07;9.70;;;;;;;;;;5055389;28;20201;-78
2021/12/15 10:35:24;;;;;;;17.97;9.60;;;;;;;;;;5039473;28;20190;-78
2021/12/15 10:38:11;;;;;;;18.63;10.37;;;;;;;;;;5055506;28;20209;-78
2021/12/15 10:40:45;;;;;;;17.80;9.10;;;;;;;;;;5039255;28;20191;-78
2021/12/15 10:43:15;;;;;;;20.30;10.00;;;;;;;;;;5055646;28;20642;-79
2021/12/15 10:45:43;;;;;;;18.40;10.23;;;;;;;;;;5055843;28;20175;-79
2021/12/15 10:48:15;;;;;;;16.67;9.97;;;;;;;;;;5038912;28;20237;-78
2021/12/15 10:50:42;;;;;;;18.93;10.20;;;;;;;;;;5055399;28;20175;-78
2021/12/15 10:53:08;;;;;;;19.90;10.70;;;;;;;;;;5039086;28;20184;-79
2021/12/15 10:55:36;;;;;;;19.37;10.50;;;;;;;;;;5039196;28;20222;-78
2021/12/15 10:58:22;;;;;;;17.87;9.97;;;;;;;;;;5055001;28;20234;-78
2021/12/15 11:00:48;;;;;;;17.63;10.00;;;;;;;;;;5054831;28;20206;-78
2021/12/15 11:03:17;;;;;;;18.00;9.83;;;;;;;;;;5038427;28;20246;-78
2021/12/15 11:05:43;;;;;;;19.17;10.50;;;;;;;;;;5039498;28;20184;-79
2021/12/15 11:08:09;;;;;;;19.63;10.57;;;;;;;;;;5055008;28;20199;-78
2021/12/15 11:10:37;;;;;;;19.27;9.97;;;;;;;;;;5055658;28;20215;-83
2021/12/15 11:13:08;;;;;;;17.23;10.70;;;;;;;;;;5038985;28;20187;-79
2021/12/15 11:15:54;;;;;;;17.57;10.50;;;;;;;;;;5054998;28;20187;-77
2021/12/15 11:18:25;;;;;;;17.00;10.23;;;;;;;;;;5055306;28;20204;-79
2021/12/15 11:20:53;;;;;;;20.57;10.77;;;;;;;;;;5039247;28;20181;-79
2021/12/15 11:23:23;;;;;;;19.90;11.03;;;;;;;;;;5039514;28;20211;-80
2021/12/15 11:25:55;;;;;;;17.77;10.30;;;;;;;;;;5055577;28;20233;-80
2021/12/15 11:28:21;;;;;;;20.57;10.77;;;;;;;;;;5055938;28;20203;-79
2021/12/15 11:30:47;;;;;;;19.37;10.77;;;;;;;;;;5055570;28;20174;-79
2021/12/15 11:33:33;;;;;;;19.70;11.00;;;;;;;;;;5055589;28;20190;-77
2021/12/15 11:36:02;;;;;;;18.83;10.20;;;;;;;;;;5054948;28;20257;-79
2021/12/15 11:38:33;;;;;;;19.33;10.83;;;;;;;;;;5056865;28;20198;-79
2021/12/15 11:40:59;;;;;;;17.60;10.20;;;;;;;;;;5059400;28;20591;-78
2021/12/15 11:43:30;;;;;;;17.10;9.97;;;;;;;;;;5059456;28;20199;-78
2021/12/15 11:45:56;;;;;;;17.47;10.57;;;;;;;;;;5059382;28;20203;-78
2021/12/15 11:48:24;;;;;;;18.33;10.60;;;;;;;;;;5059407;28;20217;-78
2021/12/15 11:50:51;;;;;;;18.57;11.03;;;;;;;;;;5058932;28;20172;-78
2021/12/15 11:53:23;;;;;;;17.53;10.53;;;;;;;;;;5059347;28;20205;-78
2021/12/15 11:55:49;;;;;;;18.43;10.50;;;;;;;;;;5059114;28;20187;-78
2021/12/15 11:58:15;;;;;;;18.43;9.93;;;;;;;;;;5058837;28;20210;-78
2021/12/15 12:00:41;;;;;;;19.17;10.80;;;;;;;;;;5076787;28;20173;-78
2021/12/15 12:03:07;;;;;;;18.37;11.13;;;;;;;;;;5042687;28;20211;-78
2021/12/15 12:05:34;;;;;;;20.37;11.53;;;;;;;;;;5042585;28;20188;-78
2021/12/15 12:08:03;;;;;;;19.97;11.17;;;;;;;;;;5042392;28;20206;-78
2021/12/15 12:10:31;;;;;;;20.00;11.33;;;;;;;;;;5042416;28;20551;-78
2021/12/15 12:13:11;;;;;;;18.47;11.67;;;;;;;;;;5058627;28;20259;-78
2021/12/15 12:15:40;;;;;;;21.53;11.83;;;;;;;;;;5059041;28;20555;-78
2021/12/15 12:18:10;;;;;;;19.50;11.57;;;;;;;;;;5058882;28;20267;-78
2021/12/15 12:20:39;;;;;;;22.27;11.97;;;;;;;;;;5058679;28;20228;-78
2021/12/15 12:23:06;;;;;;;21.60;12.20;;;;;;;;;;5041905;28;20208;-79
2021/12/15 12:25:38;;;;;;;22.20;12.40;;;;;;;;;;5042411;28;20655;-79
2021/12/15 12:28:05;;;;;;;21.67;11.83;;;;;;;;;;5042500;28;20203;-79
2021/12/15 12:30:37;;;;;;;19.87;11.77;;;;;;;;;;5058685;28;20649;-78
2021/12/15 12:33:08;;;;;;;21.17;11.93;;;;;;;;;;5041987;28;20175;-82
2021/12/15 12:35:35;;;;;;;21.87;12.53;;;;;;;;;;5042679;28;20643;-79
2021/12/15 12:38:22;;;;;;;20.73;12.17;;;;;;;;;;5035817;28;20235;-77
2021/12/15 12:40:51;;;;;;;22.87;12.20;;;;;;;;;;5062867;28;20185;-79
2021/12/15 12:43:35;;;;;;;23.80;11.70;;;;;;;;;;5061408;28;20205;-78
2021/12/15 12:46:51;;;;;;;20.60;11.77;;;;;;;;;;5076973;28;20180;-77
2021/12/15 12:49:24;;;;;;;24.30;12.30;;;;;;;;;;5076582;22;20216;-78
2021/12/15 13:00:32;;;;;;;21.67;12.43;;;;;;;;;;5073859;28;20185;-79
2021/12/15 13:03:01;;;;;;;22.03;12.17;;;;;;;;;;5074181;28;20205;-78
2021/12/15 13:05:39;;;;;;;21.20;11.63;;;;;;;;;;5073363;28;20224;-78
2021/12/15 13:08:10;;;;;;;22.73;12.50;;;;;;;;;;5056531;28;20196;-77
2021/12/15 13:10:48;;;;;;;20.67;11.97;;;;;;;;;;5056603;28;20196;-78
2021/12/15 13:13:15;;;;;;;20.67;12.30;;;;;;;;;;5073039;28;20179;-78
2021/12/15 13:15:44;;;;;;;21.20;12.57;;;;;;;;;;5072997;28;20183;-77
2021/12/15 13:18:13;;;;;;;22.73;13.00;;;;;;;;;;5073090;28;20662;-78
2021/12/15 13:20:40;;;;;;;18.07;11.53;;;;;;;;;;5072955;28;20185;-77
2021/12/15 13:23:31;;;;;;;19.83;11.40;;;;;;;;;;5056412;28;20214;-77
2021/12/15 13:29:15;;;;;;;18.83;10.47;;;;;;;;;;4981460;28;20202;-78
2021/12/15 13:31:55;;;;;;;18.67;11.33;;;;;;;;;;4976549;28;20225;-78
2021/12/15 13:34:39;;;;;;;19.03;11.60;;;;;;;;;;5042354;28;20207;-78
2021/12/15 13:37:06;;;;;;;16.67;10.40;;;;;;;;;;5072773;28;20180;-78
2021/12/15 13:39:44;;;;;;;19.23;11.23;;;;;;;;;;5073085;28;20192;-78
2021/12/15 13:42:14;;;;;;;16.97;10.97;;;;;;;;;;5074074;28;20198;-78
2021/12/15 13:44:40;;;;;;;18.27;11.40;;;;;;;;;;5072645;28;20550;-77
2021/12/15 13:47:09;;;;;;;18.67;11.63;;;;;;;;;;5072080;28;20179;-77
2021/12/15 13:49:43;;;;;;;18.97;12.23;;;;;;;;;;5072133;28;20214;-77
2021/12/15 13:52:11;;;;;;;20.63;11.93;;;;;;;;;;5072078;28;20170;-77
2021/12/15 13:54:37;;;;;;;21.27;12.47;;;;;;;;;;5055771;28;20676;-78
2021/12/15 13:57:13;;;;;;;22.80;12.40;;;;;;;;;;5071821;28;20165;-76
2021/12/15 13:59:40;;;;;;;21.93;13.30;;;;;;;;;;5071893;28;20295;-77
2021/12/15 14:02:12;;;;;;;22.30;12.60;;;;;;;;;;5070694;28;20229;-77
2021/12/15 14:04:43;;;;;;;24.73;13.53;;;;;;;;;;5072184;28;20186;-77
2021/12/15 14:07:28;;;;;;;22.00;13.33;;;;;;;;;;5055578;28;20178;-78
2021/12/15 14:10:12;;;;;;;19.47;12.73;;;;;;;;;;5071927;28;20201;-77
2021/12/15 14:12:45;;;;;;;22.17;12.77;;;;;;;;;;5071406;28;20524;-77
2021/12/15 14:15:11;;;;;;;19.93;12.83;;;;;;;;;;5072291;28;20181;-78
2021/12/15 14:17:37;;;;;;;23.43;14.10;;;;;;;;;;5072341;28;20236;-79
2021/12/15 14:20:11;;;;;;;22.13;12.47;;;;;;;;;;5072363;28;20200;-78
2021/12/15 14:22:37;;;;;;;18.77;11.90;;;;;;;;;;5055537;28;20212;-78
2021/12/15 14:25:03;;;;;;;17.77;11.37;;;;;;;;;;5072392;28;20193;-78
2021/12/15 14:27:29;;;;;;;18.97;12.00;;;;;;;;;;5056052;28;20223;-79
2021/12/15 14:29:55;;;;;;;19.53;12.27;;;;;;;;;;5056026;28;20199;-79
2021/12/15 14:32:25;;;;;;;21.17;12.33;;;;;;;;;;5055850;28;20183;-77
2021/12/15 14:34:53;;;;;;;17.70;11.87;;;;;;;;;;5072905;28;20199;-79
2021/12/15 14:37:20;;;;;;;18.80;11.47;;;;;;;;;;5057554;28;20552;-79
2021/12/15 14:39:47;;;;;;;18.53;11.80;;;;;;;;;;5072604;28;20210;-79
2021/12/15 14:42:18;;;;;;;16.43;11.03;;;;;;;;;;5056581;28;20210;-79
2021/12/15 14:44:46;;;;;;;14.57;10.43;;;;;;;;;;5055718;28;20186;-80
2021/12/15 14:47:14;;;;;;;15.97;10.57;;;;;;;;;;5071963;28;20175;-79
2021/12/15 14:49:42;;;;;;;16.27;10.53;;;;;;;;;;5052457;28;20684;-79
2021/12/15 14:52:09;;;;;;;17.67;10.87;;;;;;;;;;5072030;28;20179;-78
2021/12/15 14:54:36;;;;;;;16.17;10.83;;;;;;;;;;5056376;28;20254;-78
2021/12/15 14:57:13;;;;;;;17.13;10.57;;;;;;;;;;5072805;28;20187;-78
2021/12/15 14:59:42;;;;;;;17.07;11.43;;;;;;;;;;5055273;28;20227;-78
2021/12/15 15:02:22;;;;;;;17.27;11.03;;;;;;;;;;5055062;28;20218;-78
2021/12/15 15:04:51;;;;;;;17.77;10.67;;;;;;;;;;5054879;28;20180;-77
2021/12/15 15:07:19;;;;;;;17.40;10.97;;;;;;;;;;5040694;28;20186;-77
2021/12/15 15:09:46;;;;;;;16.40;10.20;;;;;;;;;;5050726;28;20315;-77
2021/12/15 15:12:21;;;;;;;16.27;10.37;;;;;;;;;;5033902;28;20219;-76
2021/12/15 15:14:52;;;;;;;15.13;10.00;;;;;;;;;;5034237;28;20188;-77
2021/12/15 15:17:28;;;;;;;16.83;11.07;;;;;;;;;;5034587;28;20278;-77
2021/12/15 15:19:57;;;;;;;14.63;10.13;;;;;;;;;;5036046;28;20202;-77
2021/12/15 15:22:25;;;;;;;14.70;9.73;;;;;;;;;;5034942;28;20215;-77
2021/12/15 15:24:52;;;;;;;14.77;9.57;;;;;;;;;;5070401;28;20210;-77
2021/12/15 15:27:19;;;;;;;15.97;10.80;;;;;;;;;;5074934;28;20182;-77
2021/12/15 15:29:47;;;;;;;16.00;10.27;;;;;;;;;;5085044;28;20207;-80
2021/12/15 15:32:42;;;;;;;14.80;10.47;;;;;;;;;;5059206;28;20178;-79
2021/12/15 15:35:14;;;;;;;15.53;10.57;;;;;;;;;;5070293;28;20189;-78
2021/12/15 15:37:41;;;;;;;15.27;10.20;;;;;;;;;;5071922;28;20188;-80
2021/12/15 15:40:13;;;;;;;15.03;10.00;;;;;;;;;;5070504;28;20184;-77
2021/12/15 15:42:40;;;;;;;14.07;9.67;;;;;;;;;;5070306;28;20202;-77
2021/12/15 15:45:07;;;;;;;14.53;9.50;;;;;;;;;;5070457;28;20173;-77